Lady Sandals — ZCYV2 — position and weather

sailwx.info

Track history (hours):
 
Tides and Currents Weather Stations Pressure Air Temp Water Temp Dewpoint Dewpoint Depression Visibility Wind Speed Wind Dir Waves Ship Positions

Lady Sandals

Last reported at 2018-Jun-22 01:12 UTC. Time now 2018-Jun-22 01:53 UTC.
Position N 25°47' W 080°11'.

Length 40 m; draft 2.5 m.

Type: Ship. MMSI: 319010600.

Date/timePositionNaut miles runAvg speedWind from/ knotsBaromVisibWave heightAir tempDewpointWater temp
2018-Jun-22 01:12N 25°47' W 080°11'0 0.0
2018-Jun-22 01:00N 25°47' W 080°11'0 0.0
2018-Jun-22 00:30N 25°47' W 080°11'0 0.0
2018-Jun-22 00:00N 25°47' W 080°11'0 0.0
2018-Jun-21 23:30N 25°47' W 080°11'2 3.2
2018-Jun-21 23:00N 25°46' W 080°11'4 7.8
2018-Jun-21 22:30N 25°42' W 080°11'0 0.0
2018-Jun-21 21:57N 25°42' W 080°11'0 0.0
2018-Jun-21 21:29N 25°42' W 080°11'0 0.0
2018-Jun-21 20:57N 25°42' W 080°11'0 0.0
2018-Jun-21 20:27N 25°42' W 080°11'0 0.0
2018-Jun-21 19:59N 25°42' W 080°11'0 0.1
2018-Jun-21 19:30N 25°42' W 080°11'2 4.6
2018-Jun-21 19:00N 25°44' W 080°11'3 6.3
2018-Jun-21 18:31N 25°47' W 080°11'0 0.0
2018-Jun-21 14:51N 25°47' W 080°11'1 2.4
2018-Jun-21 14:30N 25°46' W 080°11'4 7.7
2018-Jun-21 14:01N 25°46' W 080°06'612.1
2018-Jun-21 13:30N 25°52' W 080°06'611.9
2018-Jun-21 13:00N 25°58' W 080°06'612.8
2018-Jun-21 12:30N 26°05' W 080°05'2 4.6
2018-Jun-21 12:00N 26°07' W 080°07'0 0.0
2018-Jun-21 01:05N 26°07' W 080°07'0 0.1
2018-Jun-21 01:00N 26°07' W 080°07'0 0.7
2018-Jun-21 00:17N 26°07' W 080°07'1 4.3
2018-Jun-21 00:00N 26°06' W 080°07'1 1.1
2018-Jun-20 23:30N 26°06' W 080°07'  
Track history (hours):
 
Tides and Currents Weather Stations Pressure Air Temp Water Temp Dewpoint Dewpoint Depression Visibility Wind Speed Wind Dir Waves Ship Positions

Lady Sandals

Last reported at 2018-Jun-22 01:12 UTC. Time now 2018-Jun-22 01:53 UTC.
Position N 25°47' W 080°11'.

Length 40 m; draft 2.5 m.

Type: Ship. MMSI: 319010600.

Date/timePositionNaut miles runAvg speedWind from/ knotsBaromVisibWave heightAir tempDewpointWater temp
2018-Jun-22 01:12N 25°47' W 080°11'0 0.0
2018-Jun-22 01:00N 25°47' W 080°11'0 0.0
2018-Jun-22 00:30N 25°47' W 080°11'0 0.0
2018-Jun-22 00:00N 25°47' W 080°11'0 0.0
2018-Jun-21 23:30N 25°47' W 080°11'2 3.2
2018-Jun-21 23:00N 25°46' W 080°11'4 7.8
2018-Jun-21 22:30N 25°42' W 080°11'0 0.0
2018-Jun-21 21:57N 25°42' W 080°11'0 0.0
2018-Jun-21 21:29N 25°42' W 080°11'0 0.0
2018-Jun-21 20:57N 25°42' W 080°11'0 0.0
2018-Jun-21 20:27N 25°42' W 080°11'0 0.0
2018-Jun-21 19:59N 25°42' W 080°11'0 0.1
2018-Jun-21 19:30N 25°42' W 080°11'2 4.6
2018-Jun-21 19:00N 25°44' W 080°11'3 6.3
2018-Jun-21 18:31N 25°47' W 080°11'0 0.0
2018-Jun-21 14:51N 25°47' W 080°11'1 2.4
2018-Jun-21 14:30N 25°46' W 080°11'4 7.7
2018-Jun-21 14:01N 25°46' W 080°06'612.1
2018-Jun-21 13:30N 25°52' W 080°06'611.9
2018-Jun-21 13:00N 25°58' W 080°06'612.8
2018-Jun-21 12:30N 26°05' W 080°05'2 4.6
2018-Jun-21 12:00N 26°07' W 080°07'0 0.0
2018-Jun-21 01:05N 26°07' W 080°07'0 0.1
2018-Jun-21 01:00N 26°07' W 080°07'0 0.7
2018-Jun-21 00:17N 26°07' W 080°07'1 4.3
2018-Jun-21 00:00N 26°06' W 080°07'1 1.1
2018-Jun-20 23:30N 26°06' W 080°07'  

Dump ship's entire track history